Time;durP1;ratioP1;P1;durP2;ratioP2;P2;SDS_P1;SDS_P2;PMS_P1;PMS_P2;Temp;Humidity;BMP_temperature;BMP_pressure;BME280_temperature;BME280_humidity;BME280_pressure;Samples;Min_cycle;Max_cycle;Signal;HPM_P1;HPM_P2
2022/03/27 00:02:45;;;;;;;546.04;494.35;;;;;;;;;;;;;-59
2022/03/27 00:05:45;;;;;;;543.23;491.57;;;;;;;;;;;;;-55
2022/03/27 00:08:45;;;;;;;544.86;493.26;;;;;;;;;;;;;-57
2022/03/27 00:11:45;;;;;;;544.67;493.00;;;;;;;;;;;;;-55
2022/03/27 00:14:45;;;;;;;540.95;489.60;;;;;;;;;;;;;-60
2022/03/27 00:17:45;;;;;;;540.60;489.17;;;;;;;;;;;;;-59
2022/03/27 00:20:45;;;;;;;541.00;489.53;;;;;;;;;;;;;-59
2022/03/27 00:23:45;;;;;;;541.25;489.89;;;;;;;;;;;;;-59
2022/03/27 00:26:45;;;;;;;543.43;491.99;;;;;;;;;;;;;-59
2022/03/27 00:29:45;;;;;;;532.79;481.95;;;;;;;;;;;;;-57
2022/03/27 00:32:45;;;;;;;532.52;481.42;;;;;;;;;;;;;-59
2022/03/27 00:35:45;;;;;;;535.45;484.31;;;;;;;;;;;;;-59
2022/03/27 00:38:45;;;;;;;536.33;485.11;;;;;;;;;;;;;-55
2022/03/27 00:41:45;;;;;;;540.17;488.87;;;;;;;;;;;;;-55
2022/03/27 00:44:45;;;;;;;539.19;487.87;;;;;;;;;;;;;-53
2022/03/27 00:47:45;;;;;;;546.29;494.61;;;;;;;;;;;;;-53
2022/03/27 00:50:45;;;;;;;540.35;488.97;;;;;;;;;;;;;-53
2022/03/27 00:53:45;;;;;;;539.63;488.19;;;;;;;;;;;;;-59
2022/03/27 00:56:45;;;;;;;538.90;487.56;;;;;;;;;;;;;-60
2022/03/27 00:59:45;;;;;;;543.17;491.47;;;;;;;;;;;;;-54
2022/03/27 01:02:45;;;;;;;542.87;491.32;;;;;;;;;;;;;-55
2022/03/27 01:05:45;;;;;;;540.35;488.82;;;;;;;;;;;;;-55
2022/03/27 01:11:45;;;;;;;541.35;489.74;;;;;;;;;;;;;-59
2022/03/27 01:14:45;;;;;;;537.13;485.67;;;;;;;;;;;;;-55
2022/03/27 01:17:45;;;;;;;533.01;481.73;;;;;;;;;;;;;-55
2022/03/27 01:20:45;;;;;;;536.24;484.91;;;;;;;;;;;;;-56
2022/03/27 01:23:45;;;;;;;541.25;489.60;;;;;;;;;;;;;-57
2022/03/27 01:26:45;;;;;;;544.49;492.65;;;;;;;;;;;;;-57
2022/03/27 01:29:45;;;;;;;543.39;491.73;;;;;;;;;;;;;-58
2022/03/27 01:32:45;;;;;;;544.97;493.02;;;;;;;;;;;;;-59
2022/03/27 01:35:45;;;;;;;543.79;492.09;;;;;;;;;;;;;-57
2022/03/27 01:38:45;;;;;;;541.97;490.30;;;;;;;;;;;;;-54
2022/03/27 01:41:45;;;;;;;538.85;487.42;;;;;;;;;;;;;-54
2022/03/27 01:44:45;;;;;;;535.59;484.27;;;;;;;;;;;;;-54
2022/03/27 01:47:45;;;;;;;539.41;487.91;;;;;;;;;;;;;-59
2022/03/27 01:50:45;;;;;;;537.32;486.01;;;;;;;;;;;;;-60
2022/03/27 01:53:45;;;;;;;536.67;485.29;;;;;;;;;;;;;-58
2022/03/27 01:56:45;;;;;;;544.28;492.61;;;;;;;;;;;;;-60
2022/03/27 01:59:45;;;;;;;546.01;494.10;;;;;;;;;;;;;-55
2022/03/27 02:02:45;;;;;;;541.49;489.87;;;;;;;;;;;;;-56
2022/03/27 02:05:45;;;;;;;543.68;491.75;;;;;;;;;;;;;-55
2022/03/27 02:08:45;;;;;;;544.36;492.44;;;;;;;;;;;;;-60
2022/03/27 02:11:45;;;;;;;546.67;494.79;;;;;;;;;;;;;-59
2022/03/27 02:14:45;;;;;;;542.88;491.13;;;;;;;;;;;;;-59
2022/03/27 02:17:45;;;;;;;540.99;489.37;;;;;;;;;;;;;-59
2022/03/27 02:20:45;;;;;;;538.56;487.04;;;;;;;;;;;;;-57
2022/03/27 02:23:45;;;;;;;537.39;485.93;;;;;;;;;;;;;-55
2022/03/27 02:26:45;;;;;;;554.67;502.32;;;;;;;;;;;;;-56
2022/03/27 02:29:45;;;;;;;547.44;495.35;;;;;;;;;;;;;-55
2022/03/27 02:32:45;;;;;;;551.33;499.26;;;;;;;;;;;;;-55
2022/03/27 02:35:45;;;;;;;548.30;496.15;;;;;;;;;;;;;-56
2022/03/27 02:38:45;;;;;;;546.56;494.52;;;;;;;;;;;;;-56
2022/03/27 02:41:45;;;;;;;547.72;495.66;;;;;;;;;;;;;-55
2022/03/27 02:44:45;;;;;;;548.90;496.93;;;;;;;;;;;;;-53
2022/03/27 02:47:45;;;;;;;543.59;491.65;;;;;;;;;;;;;-53
2022/03/27 02:50:45;;;;;;;543.69;491.82;;;;;;;;;;;;;-55
2022/03/27 02:53:45;;;;;;;544.41;492.67;;;;;;;;;;;;;-55
2022/03/27 02:56:46;;;;;;;544.45;492.61;;;;;;;;;;;;;-55
2022/03/27 02:59:45;;;;;;;542.71;490.86;;;;;;;;;;;;;-59
2022/03/27 03:02:45;;;;;;;541.83;490.04;;;;;;;;;;;;;-59
2022/03/27 03:05:45;;;;;;;544.08;492.31;;;;;;;;;;;;;-58
2022/03/27 03:08:45;;;;;;;541.01;489.34;;;;;;;;;;;;;-58
2022/03/27 03:11:45;;;;;;;543.73;491.96;;;;;;;;;;;;;-58
2022/03/27 03:14:45;;;;;;;541.83;490.07;;;;;;;;;;;;;-60
2022/03/27 03:17:45;;;;;;;543.39;491.69;;;;;;;;;;;;;-59
2022/03/27 03:20:45;;;;;;;541.59;490.01;;;;;;;;;;;;;-56
2022/03/27 03:23:45;;;;;;;545.35;493.40;;;;;;;;;;;;;-58
2022/03/27 03:26:45;;;;;;;541.99;490.25;;;;;;;;;;;;;-57
2022/03/27 03:29:45;;;;;;;545.96;493.95;;;;;;;;;;;;;-56
2022/03/27 03:32:45;;;;;;;542.87;491.09;;;;;;;;;;;;;-60
2022/03/27 03:35:45;;;;;;;554.46;501.99;;;;;;;;;;;;;-60
2022/03/27 03:38:45;;;;;;;546.85;494.86;;;;;;;;;;;;;-59
2022/03/27 03:41:45;;;;;;;541.57;489.89;;;;;;;;;;;;;-55
2022/03/27 03:44:45;;;;;;;542.05;490.25;;;;;;;;;;;;;-59
2022/03/27 03:47:45;;;;;;;545.03;493.09;;;;;;;;;;;;;-54
2022/03/27 03:50:45;;;;;;;546.44;494.61;;;;;;;;;;;;;-56
2022/03/27 03:53:45;;;;;;;545.06;493.21;;;;;;;;;;;;;-53
2022/03/27 03:56:45;;;;;;;541.59;489.94;;;;;;;;;;;;;-59
2022/03/27 03:59:45;;;;;;;544.60;492.74;;;;;;;;;;;;;-57
2022/03/27 04:02:45;;;;;;;542.76;490.89;;;;;;;;;;;;;-60
2022/03/27 04:05:45;;;;;;;541.53;489.85;;;;;;;;;;;;;-59
2022/03/27 04:08:45;;;;;;;539.92;488.35;;;;;;;;;;;;;-58
2022/03/27 04:11:47;;;;;;;541.60;489.95;;;;;;;;;;;;;-59
2022/03/27 04:14:45;;;;;;;542.02;490.22;;;;;;;;;;;;;-59
2022/03/27 04:17:45;;;;;;;540.79;489.17;;;;;;;;;;;;;-55
2022/03/27 04:20:45;;;;;;;540.75;489.09;;;;;;;;;;;;;-55
2022/03/27 04:23:45;;;;;;;537.09;485.65;;;;;;;;;;;;;-59
2022/03/27 04:26:45;;;;;;;538.83;487.21;;;;;;;;;;;;;-61
2022/03/27 04:29:45;;;;;;;542.44;490.86;;;;;;;;;;;;;-59
2022/03/27 04:32:45;;;;;;;539.90;488.42;;;;;;;;;;;;;-59
2022/03/27 04:35:45;;;;;;;539.16;487.61;;;;;;;;;;;;;-59
2022/03/27 04:38:45;;;;;;;539.60;488.17;;;;;;;;;;;;;-55
2022/03/27 04:41:46;;;;;;;536.32;484.92;;;;;;;;;;;;;-58
2022/03/27 04:44:45;;;;;;;538.80;487.24;;;;;;;;;;;;;-52
2022/03/27 04:47:45;;;;;;;540.29;488.69;;;;;;;;;;;;;-54
2022/03/27 04:50:45;;;;;;;539.17;487.61;;;;;;;;;;;;;-53
2022/03/27 04:53:45;;;;;;;541.83;490.11;;;;;;;;;;;;;-55
2022/03/27 04:56:45;;;;;;;539.90;488.45;;;;;;;;;;;;;-56
2022/03/27 04:59:45;;;;;;;539.48;487.87;;;;;;;;;;;;;-60
2022/03/27 05:02:45;;;;;;;541.41;489.84;;;;;;;;;;;;;-57
2022/03/27 05:05:45;;;;;;;541.31;489.75;;;;;;;;;;;;;-57
2022/03/27 05:08:46;;;;;;;540.74;489.23;;;;;;;;;;;;;-59
2022/03/27 05:11:45;;;;;;;542.04;490.48;;;;;;;;;;;;;-56
2022/03/27 05:14:45;;;;;;;542.54;491.11;;;;;;;;;;;;;-56
2022/03/27 05:17:45;;;;;;;546.79;495.00;;;;;;;;;;;;;-58
2022/03/27 05:20:45;;;;;;;539.57;487.95;;;;;;;;;;;;;-54
2022/03/27 05:23:45;;;;;;;543.25;491.70;;;;;;;;;;;;;-60
2022/03/27 05:26:45;;;;;;;543.70;492.09;;;;;;;;;;;;;-60
2022/03/27 05:29:45;;;;;;;544.97;493.31;;;;;;;;;;;;;-58
2022/03/27 05:32:45;;;;;;;544.54;492.89;;;;;;;;;;;;;-58
2022/03/27 05:35:45;;;;;;;545.30;493.49;;;;;;;;;;;;;-58
2022/03/27 05:38:45;;;;;;;547.81;495.97;;;;;;;;;;;;;-53
2022/03/27 05:41:45;;;;;;;548.43;496.43;;;;;;;;;;;;;-54
2022/03/27 05:44:45;;;;;;;546.51;494.79;;;;;;;;;;;;;-53
2022/03/27 05:47:45;;;;;;;549.59;497.73;;;;;;;;;;;;;-53
2022/03/27 05:50:45;;;;;;;547.43;495.77;;;;;;;;;;;;;-59
2022/03/27 05:53:45;;;;;;;546.01;494.35;;;;;;;;;;;;;-59
2022/03/27 05:56:45;;;;;;;544.82;493.15;;;;;;;;;;;;;-58
2022/03/27 05:59:45;;;;;;;544.80;493.07;;;;;;;;;;;;;-59
2022/03/27 06:02:45;;;;;;;544.88;493.22;;;;;;;;;;;;;-59
2022/03/27 06:05:45;;;;;;;546.14;494.41;;;;;;;;;;;;;-55
2022/03/27 06:08:45;;;;;;;544.66;493.04;;;;;;;;;;;;;-55
2022/03/27 06:11:45;;;;;;;545.07;493.49;;;;;;;;;;;;;-55
2022/03/27 06:14:45;;;;;;;543.91;492.40;;;;;;;;;;;;;-60
2022/03/27 06:17:45;;;;;;;545.57;493.89;;;;;;;;;;;;;-60
2022/03/27 06:20:45;;;;;;;544.46;492.77;;;;;;;;;;;;;-55
2022/03/27 06:23:45;;;;;;;541.40;490.17;;;;;;;;;;;;;-53
2022/03/27 06:26:45;;;;;;;537.17;486.13;;;;;;;;;;;;;-53
2022/03/27 06:29:45;;;;;;;530.46;479.67;;;;;;;;;;;;;-52
2022/03/27 06:32:45;;;;;;;539.34;488.01;;;;;;;;;;;;;-53
2022/03/27 06:35:45;;;;;;;542.60;491.11;;;;;;;;;;;;;-55
2022/03/27 06:38:45;;;;;;;541.67;490.31;;;;;;;;;;;;;-53
2022/03/27 06:41:45;;;;;;;545.75;494.07;;;;;;;;;;;;;-53
2022/03/27 06:44:45;;;;;;;544.99;493.40;;;;;;;;;;;;;-53
2022/03/27 06:47:45;;;;;;;547.20;495.65;;;;;;;;;;;;;-57
2022/03/27 06:50:46;;;;;;;548.91;497.07;;;;;;;;;;;;;-58
2022/03/27 06:53:45;;;;;;;549.15;497.35;;;;;;;;;;;;;-56
2022/03/27 06:56:45;;;;;;;547.35;495.53;;;;;;;;;;;;;-56
2022/03/27 07:05:45;;;;;;;541.85;490.32;;;;;;;;;;;;;-55
2022/03/27 07:08:46;;;;;;;547.03;495.29;;;;;;;;;;;;;-55
2022/03/27 07:11:46;;;;;;;544.69;493.01;;;;;;;;;;;;;-55
2022/03/27 07:14:46;;;;;;;547.93;496.19;;;;;;;;;;;;;-55
2022/03/27 07:17:45;;;;;;;548.29;496.41;;;;;;;;;;;;;-55
2022/03/27 07:20:46;;;;;;;544.63;492.82;;;;;;;;;;;;;-59
2022/03/27 07:23:45;;;;;;;541.81;490.26;;;;;;;;;;;;;-59
2022/03/27 07:26:46;;;;;;;542.91;491.39;;;;;;;;;;;;;-58
2022/03/27 07:29:45;;;;;;;535.61;484.35;;;;;;;;;;;;;-53
2022/03/27 07:32:45;;;;;;;536.69;485.53;;;;;;;;;;;;;-59
2022/03/27 07:35:45;;;;;;;538.97;487.62;;;;;;;;;;;;;-61
2022/03/27 07:38:45;;;;;;;535.22;483.98;;;;;;;;;;;;;-54
2022/03/27 07:41:45;;;;;;;540.88;489.25;;;;;;;;;;;;;-59
2022/03/27 07:44:45;;;;;;;536.15;484.94;;;;;;;;;;;;;-58
2022/03/27 07:47:45;;;;;;;538.39;487.15;;;;;;;;;;;;;-59
2022/03/27 07:50:46;;;;;;;538.19;486.97;;;;;;;;;;;;;-59
2022/03/27 07:53:45;;;;;;;535.52;484.28;;;;;;;;;;;;;-59
2022/03/27 07:56:45;;;;;;;533.11;482.04;;;;;;;;;;;;;-59
2022/03/27 07:59:45;;;;;;;529.73;478.71;;;;;;;;;;;;;-59
2022/03/27 08:02:45;;;;;;;521.98;471.40;;;;;;;;;;;;;-58
2022/03/27 08:05:45;;;;;;;524.78;474.05;;;;;;;;;;;;;-60
2022/03/27 08:08:45;;;;;;;525.71;474.75;;;;;;;;;;;;;-58
2022/03/27 08:11:45;;;;;;;526.17;475.40;;;;;;;;;;;;;-59
2022/03/27 08:14:48;;;;;;;529.33;478.40;;;;;;;;;;;;;-58
2022/03/27 08:17:45;;;;;;;530.02;479.18;;;;;;;;;;;;;-56
2022/03/27 08:20:45;;;;;;;529.98;478.94;;;;;;;;;;;;;-55
2022/03/27 08:23:45;;;;;;;529.36;478.43;;;;;;;;;;;;;-56
2022/03/27 08:27:00;;;;;;;531.35;480.39;;;;;;;;;;;;;-55
2022/03/27 08:29:45;;;;;;;530.37;479.51;;;;;;;;;;;;;-55
2022/03/27 08:32:45;;;;;;;530.22;479.31;;;;;;;;;;;;;-54
2022/03/27 08:35:46;;;;;;;533.06;482.06;;;;;;;;;;;;;-54
2022/03/27 08:38:45;;;;;;;533.19;482.13;;;;;;;;;;;;;-53
2022/03/27 08:41:46;;;;;;;532.94;481.70;;;;;;;;;;;;;-62
2022/03/27 08:44:45;;;;;;;532.99;480.97;;;;;;;;;;;;;-61
2022/03/27 08:47:47;;;;;;;526.43;474.90;;;;;;;;;;;;;-63
2022/03/27 08:50:45;;;;;;;530.47;479.14;;;;;;;;;;;;;-63
2022/03/27 08:53:45;;;;;;;534.49;482.85;;;;;;;;;;;;;-63
2022/03/27 08:56:45;;;;;;;533.27;481.77;;;;;;;;;;;;;-63
2022/03/27 08:59:46;;;;;;;535.25;483.63;;;;;;;;;;;;;-57
2022/03/27 09:02:45;;;;;;;536.17;484.57;;;;;;;;;;;;;-60
2022/03/27 09:05:45;;;;;;;531.79;480.11;;;;;;;;;;;;;-62
2022/03/27 09:08:45;;;;;;;544.43;492.34;;;;;;;;;;;;;-58
2022/03/27 09:11:45;;;;;;;545.23;492.95;;;;;;;;;;;;;-56
2022/03/27 09:14:45;;;;;;;539.41;487.39;;;;;;;;;;;;;-56
2022/03/27 09:17:45;;;;;;;541.22;489.09;;;;;;;;;;;;;-57
2022/03/27 09:20:45;;;;;;;553.61;500.99;;;;;;;;;;;;;-55
2022/03/27 09:23:45;;;;;;;548.65;496.31;;;;;;;;;;;;;-56
2022/03/27 09:26:45;;;;;;;545.33;493.02;;;;;;;;;;;;;-53
2022/03/27 09:29:45;;;;;;;540.76;488.69;;;;;;;;;;;;;-58
2022/03/27 09:32:45;;;;;;;544.50;492.22;;;;;;;;;;;;;-51
2022/03/27 09:35:45;;;;;;;542.85;490.73;;;;;;;;;;;;;-52
2022/03/27 09:38:45;;;;;;;548.08;495.84;;;;;;;;;;;;;-52
2022/03/27 09:41:45;;;;;;;548.30;495.81;;;;;;;;;;;;;-53
2022/03/27 09:44:45;;;;;;;549.99;496.86;;;;;;;;;;;;;-54
2022/03/27 09:47:45;;;;;;;553.11;500.50;;;;;;;;;;;;;-56
2022/03/27 09:50:45;;;;;;;554.05;501.61;;;;;;;;;;;;;-59
2022/03/27 09:53:50;;;;;;;558.31;505.61;;;;;;;;;;;;;-51
2022/03/27 09:56:45;;;;;;;556.19;503.32;;;;;;;;;;;;;-51
2022/03/27 09:59:45;;;;;;;556.91;504.33;;;;;;;;;;;;;-62
2022/03/27 10:02:45;;;;;;;555.11;502.79;;;;;;;;;;;;;-63
2022/03/27 10:05:45;;;;;;;557.03;504.61;;;;;;;;;;;;;-59
2022/03/27 10:08:45;;;;;;;561.29;508.48;;;;;;;;;;;;;-62
2022/03/27 10:11:45;;;;;;;558.94;506.32;;;;;;;;;;;;;-63
2022/03/27 10:14:45;;;;;;;561.61;509.01;;;;;;;;;;;;;-58
2022/03/27 10:17:45;;;;;;;559.71;507.11;;;;;;;;;;;;;-52
2022/03/27 10:20:45;;;;;;;560.81;508.13;;;;;;;;;;;;;-52
2022/03/27 10:23:45;;;;;;;564.03;511.22;;;;;;;;;;;;;-52
2022/03/27 10:26:45;;;;;;;560.46;508.08;;;;;;;;;;;;;-51
2022/03/27 10:29:45;;;;;;;561.16;508.59;;;;;;;;;;;;;-51
2022/03/27 10:32:45;;;;;;;559.80;507.07;;;;;;;;;;;;;-58
2022/03/27 10:35:45;;;;;;;559.64;506.82;;;;;;;;;;;;;-54
2022/03/27 10:38:45;;;;;;;562.01;509.32;;;;;;;;;;;;;-56
2022/03/27 10:41:45;;;;;;;559.34;506.99;;;;;;;;;;;;;-56
2022/03/27 10:44:45;;;;;;;565.90;513.08;;;;;;;;;;;;;-56
2022/03/27 10:47:45;;;;;;;561.40;508.76;;;;;;;;;;;;;-54
2022/03/27 10:50:45;;;;;;;557.61;505.15;;;;;;;;;;;;;-54
2022/03/27 10:53:45;;;;;;;557.81;505.27;;;;;;;;;;;;;-56
2022/03/27 10:56:45;;;;;;;562.45;509.83;;;;;;;;;;;;;-53
2022/03/27 10:59:45;;;;;;;558.21;505.75;;;;;;;;;;;;;-54
2022/03/27 11:02:45;;;;;;;558.43;506.03;;;;;;;;;;;;;-55
2022/03/27 11:05:45;;;;;;;562.35;509.98;;;;;;;;;;;;;-58
2022/03/27 11:08:45;;;;;;;560.57;508.19;;;;;;;;;;;;;-48
2022/03/27 11:11:45;;;;;;;562.89;510.47;;;;;;;;;;;;;-48
2022/03/27 11:14:45;;;;;;;564.45;511.95;;;;;;;;;;;;;-48
2022/03/27 11:17:52;;;;;;;562.49;509.93;;;;;;;;;;;;;-48
2022/03/27 11:20:45;;;;;;;562.53;509.97;;;;;;;;;;;;;-49
2022/03/27 11:23:45;;;;;;;563.95;511.54;;;;;;;;;;;;;-51
2022/03/27 11:26:45;;;;;;;569.72;516.97;;;;;;;;;;;;;-57
2022/03/27 11:29:45;;;;;;;564.10;511.75;;;;;;;;;;;;;-53
2022/03/27 11:32:45;;;;;;;565.07;512.64;;;;;;;;;;;;;-54
2022/03/27 11:35:45;;;;;;;558.69;506.38;;;;;;;;;;;;;-60
2022/03/27 11:38:45;;;;;;;559.83;507.57;;;;;;;;;;;;;-61
2022/03/27 11:41:45;;;;;;;559.29;507.10;;;;;;;;;;;;;-60
2022/03/27 11:47:45;;;;;;;554.01;501.95;;;;;;;;;;;;;-52
2022/03/27 11:50:45;;;;;;;550.80;498.71;;;;;;;;;;;;;-60
2022/03/27 11:53:45;;;;;;;551.96;499.89;;;;;;;;;;;;;-60
2022/03/27 11:56:45;;;;;;;554.05;502.11;;;;;;;;;;;;;-60
2022/03/27 11:59:46;;;;;;;551.81;499.77;;;;;;;;;;;;;-59
2022/03/27 12:02:45;;;;;;;553.44;501.56;;;;;;;;;;;;;-55
2022/03/27 12:05:45;;;;;;;549.07;497.30;;;;;;;;;;;;;-58
2022/03/27 12:08:47;;;;;;;552.07;500.22;;;;;;;;;;;;;-58
2022/03/27 12:11:45;;;;;;;554.90;502.84;;;;;;;;;;;;;-58
2022/03/27 12:14:45;;;;;;;556.42;504.28;;;;;;;;;;;;;-58
2022/03/27 12:17:45;;;;;;;556.33;503.75;;;;;;;;;;;;;-58
2022/03/27 12:20:45;;;;;;;552.49;500.64;;;;;;;;;;;;;-58
2022/03/27 12:23:45;;;;;;;555.69;503.60;;;;;;;;;;;;;-58
2022/03/27 12:29:52;;;;;;;558.53;506.46;;;;;;;;;;;;;-58
2022/03/27 12:32:45;;;;;;;559.14;506.77;;;;;;;;;;;;;-58
2022/03/27 12:35:45;;;;;;;557.61;505.57;;;;;;;;;;;;;-58
2022/03/27 12:38:45;;;;;;;557.26;505.02;;;;;;;;;;;;;-58
2022/03/27 12:41:45;;;;;;;554.54;502.64;;;;;;;;;;;;;-58
2022/03/27 12:44:45;;;;;;;557.12;505.13;;;;;;;;;;;;;-58
2022/03/27 12:47:45;;;;;;;558.25;506.13;;;;;;;;;;;;;-58
2022/03/27 12:50:45;;;;;;;559.65;507.56;;;;;;;;;;;;;-58
2022/03/27 12:53:45;;;;;;;554.92;502.87;;;;;;;;;;;;;-55
2022/03/27 12:56:45;;;;;;;549.93;498.23;;;;;;;;;;;;;-55
2022/03/27 12:59:45;;;;;;;547.61;495.97;;;;;;;;;;;;;-58
2022/03/27 13:02:45;;;;;;;554.96;502.97;;;;;;;;;;;;;-58
2022/03/27 13:05:45;;;;;;;550.15;498.25;;;;;;;;;;;;;-59
2022/03/27 13:08:45;;;;;;;552.34;500.35;;;;;;;;;;;;;-60
2022/03/27 13:11:45;;;;;;;555.94;503.79;;;;;;;;;;;;;-51
2022/03/27 13:17:45;;;;;;;556.63;504.43;;;;;;;;;;;;;-53
2022/03/27 13:20:45;;;;;;;556.45;504.41;;;;;;;;;;;;;-56
2022/03/27 13:23:45;;;;;;;561.33;509.07;;;;;;;;;;;;;-59
2022/03/27 13:26:45;;;;;;;557.09;504.97;;;;;;;;;;;;;-57
2022/03/27 13:29:45;;;;;;;558.79;506.45;;;;;;;;;;;;;-53
2022/03/27 13:32:45;;;;;;;549.93;498.03;;;;;;;;;;;;;-55
2022/03/27 13:35:48;;;;;;;551.21;499.31;;;;;;;;;;;;;-58
2022/03/27 13:38:45;;;;;;;559.06;506.82;;;;;;;;;;;;;-57
2022/03/27 13:44:45;;;;;;;559.21;507.08;;;;;;;;;;;;;-63
2022/03/27 13:47:45;;;;;;;555.20;503.20;;;;;;;;;;;;;-56
2022/03/27 13:50:45;;;;;;;558.96;506.79;;;;;;;;;;;;;-55
2022/03/27 13:53:45;;;;;;;558.73;506.41;;;;;;;;;;;;;-59
2022/03/27 13:56:45;;;;;;;562.15;509.81;;;;;;;;;;;;;-57
2022/03/27 13:59:45;;;;;;;560.60;508.36;;;;;;;;;;;;;-57
2022/03/27 14:02:45;;;;;;;564.99;512.57;;;;;;;;;;;;;-57
2022/03/27 14:05:45;;;;;;;566.99;514.31;;;;;;;;;;;;;-57
2022/03/27 14:08:45;;;;;;;566.83;514.30;;;;;;;;;;;;;-56
2022/03/27 14:11:47;;;;;;;561.29;509.00;;;;;;;;;;;;;-57
2022/03/27 14:14:45;;;;;;;568.51;515.89;;;;;;;;;;;;;-58
2022/03/27 14:17:48;;;;;;;569.93;517.26;;;;;;;;;;;;;-57
2022/03/27 14:20:45;;;;;;;566.06;513.40;;;;;;;;;;;;;-57
2022/03/27 14:23:45;;;;;;;567.41;514.86;;;;;;;;;;;;;-57
2022/03/27 14:26:45;;;;;;;563.78;511.25;;;;;;;;;;;;;-56
2022/03/27 14:29:45;;;;;;;564.15;511.72;;;;;;;;;;;;;-57
2022/03/27 14:32:46;;;;;;;565.29;512.86;;;;;;;;;;;;;-57
2022/03/27 14:35:45;;;;;;;569.38;516.66;;;;;;;;;;;;;-57
2022/03/27 14:38:45;;;;;;;566.75;514.08;;;;;;;;;;;;;-57
2022/03/27 14:41:45;;;;;;;565.19;512.60;;;;;;;;;;;;;-57
2022/03/27 14:44:45;;;;;;;568.16;515.49;;;;;;;;;;;;;-57
2022/03/27 14:47:45;;;;;;;569.30;516.54;;;;;;;;;;;;;-59
2022/03/27 14:50:45;;;;;;;565.91;513.42;;;;;;;;;;;;;-57
2022/03/27 14:57:45;;;;;;;553.43;501.37;;;;;;;;;;;;;-57
2022/03/27 15:00:46;;;;;;;561.45;509.03;;;;;;;;;;;;;-58
2022/03/27 15:03:45;;;;;;;561.25;508.92;;;;;;;;;;;;;-56
2022/03/27 15:06:45;;;;;;;560.97;508.60;;;;;;;;;;;;;-57
2022/03/27 15:09:45;;;;;;;564.87;512.37;;;;;;;;;;;;;-57
2022/03/27 15:12:45;;;;;;;565.59;513.07;;;;;;;;;;;;;-58
2022/03/27 15:15:45;;;;;;;563.57;511.13;;;;;;;;;;;;;-58
2022/03/27 15:18:45;;;;;;;562.22;509.78;;;;;;;;;;;;;-59
2022/03/27 15:21:47;;;;;;;565.77;513.20;;;;;;;;;;;;;-58
2022/03/27 15:24:45;;;;;;;565.50;512.96;;;;;;;;;;;;;-58
2022/03/27 15:27:45;;;;;;;566.32;513.77;;;;;;;;;;;;;-59
2022/03/27 15:30:45;;;;;;;567.19;514.52;;;;;;;;;;;;;-54
2022/03/27 15:33:45;;;;;;;565.68;513.17;;;;;;;;;;;;;-55
2022/03/27 15:36:45;;;;;;;565.05;512.67;;;;;;;;;;;;;-54
2022/03/27 15:39:45;;;;;;;564.75;512.30;;;;;;;;;;;;;-59
2022/03/27 15:42:45;;;;;;;564.55;512.12;;;;;;;;;;;;;-57
2022/03/27 15:45:45;;;;;;;565.51;513.13;;;;;;;;;;;;;-57
2022/03/27 15:48:45;;;;;;;562.92;510.49;;;;;;;;;;;;;-57
2022/03/27 15:51:45;;;;;;;567.17;514.63;;;;;;;;;;;;;-53
2022/03/27 15:54:45;;;;;;;565.16;512.64;;;;;;;;;;;;;-54
2022/03/27 16:02:15;;;;;;;416.96;382.03;;;;;;;17.99;42.98;101322.28;;;;-57
2022/03/27 16:05:15;;;;;;;234.38;216.27;;;;;;;17.96;43.02;101325.91;;;;-52
2022/03/27 16:08:16;;;;;;;708.23;648.93;;;;;;;18.03;43.39;101323.81;;;;-59
2022/03/27 16:11:15;;;;;;;682.56;624.51;;;;;;;18.04;43.07;101324.51;;;;-54
2022/03/27 16:14:15;;;;;;;642.47;585.91;;;;;;;18.06;43.03;101322.78;;;;-58
2022/03/27 16:17:16;;;;;;;554.95;503.23;;;;;;;18.07;43.03;101324.81;;;;-52
2022/03/27 16:20:15;;;;;;;569.97;517.53;;;;;;;18.08;43.02;101324.28;;;;-61
2022/03/27 16:23:15;;;;;;;556.95;505.18;;;;;;;18.09;43.06;101320.80;;;;-65
2022/03/27 16:26:15;;;;;;;568.41;515.99;;;;;;;18.12;42.98;101323.25;;;;-55
2022/03/27 16:29:17;;;;;;;581.78;528.17;;;;;;;18.10;42.89;101321.58;;;;-56
2022/03/27 16:32:15;;;;;;;547.30;495.62;;;;;;;18.09;42.84;101318.70;;;;-53
2022/03/27 16:35:15;;;;;;;527.93;477.37;;;;;;;18.08;42.82;101319.75;;;;-54
2022/03/27 16:38:17;;;;;;;532.78;482.20;;;;;;;18.06;42.84;101319.05;;;;-54
2022/03/27 16:41:15;;;;;;;204.20;177.47;;;;;;;18.07;42.94;101320.88;;;;-53
2022/03/27 16:44:15;;;;;;;456.74;416.42;;;;;;;18.08;43.06;101319.42;;;;-60
2022/03/27 16:47:31;;;;;;;456.43;416.39;;;;;;;18.11;43.01;101321.02;;;;-56
2022/03/27 16:50:15;;;;;;;10.95;10.09;;;;;;;18.11;43.00;101318.27;;;;-53
2022/03/27 16:53:16;;;;;;;329.32;301.80;;;;;;;18.12;42.95;101316.69;;;;-55
2022/03/27 16:56:16;;;;;;;4.20;2.77;;;;;;;18.13;42.93;101319.38;;;;-66
2022/03/27 16:59:16;;;;;;;3.70;3.07;;;;;;;18.14;42.90;101316.89;;;;-61
2022/03/27 17:02:16;;;;;;;39.67;36.95;;;;;;;18.14;42.92;101313.17;;;;-60
2022/03/27 17:05:15;;;;;;;3.15;2.61;;;;;;;18.16;42.89;101311.32;;;;-46
2022/03/27 17:08:16;;;;;;;4.64;4.26;;;;;;;18.17;42.88;101315.25;;;;-57
2022/03/27 17:11:15;;;;;;;2.72;2.50;;;;;;;18.18;42.88;101316.84;;;;-55
2022/03/27 17:14:15;;;;;;;6.66;6.16;;;;;;;18.18;42.96;101319.84;;;;-52
2022/03/27 17:17:15;;;;;;;61.47;57.07;;;;;;;18.19;42.92;101321.80;;;;-54
2022/03/27 17:20:16;;;;;;;26.91;24.68;;;;;;;18.19;42.95;101318.64;;;;-51
2022/03/27 17:23:15;;;;;;;3.55;2.77;;;;;;;18.19;42.95;101317.91;;;;-51
2022/03/27 17:26:15;;;;;;;3.24;2.65;;;;;;;18.19;42.97;101315.47;;;;-56
2022/03/27 17:29:15;;;;;;;3.51;2.65;;;;;;;18.21;42.95;101314.95;;;;-59
2022/03/27 17:32:15;;;;;;;3.01;2.69;;;;;;;18.20;42.95;101317.70;;;;-52
2022/03/27 17:35:15;;;;;;;4.00;2.59;;;;;;;18.21;43.02;101314.71;;;;-56
2022/03/27 17:38:15;;;;;;;3.30;2.71;;;;;;;18.21;43.09;101313.48;;;;-52
2022/03/27 17:41:15;;;;;;;3.21;2.63;;;;;;;18.22;42.91;101313.42;;;;-54
2022/03/27 17:44:17;;;;;;;4.05;2.70;;;;;;;18.20;42.91;101310.45;;;;-54
2022/03/27 17:47:15;;;;;;;3.03;2.51;;;;;;;18.18;42.94;101307.64;;;;-55
2022/03/27 17:50:15;;;;;;;3.22;2.66;;;;;;;18.17;42.87;101311.20;;;;-57
2022/03/27 17:53:15;;;;;;;4.85;2.62;;;;;;;18.17;43.16;101308.45;;;;-58
2022/03/27 17:56:15;;;;;;;4.31;3.05;;;;;;;18.18;43.12;101311.05;;;;-55
2022/03/27 17:59:15;;;;;;;3.45;2.50;;;;;;;18.18;43.17;101309.75;;;;-59
2022/03/27 18:02:16;;;;;;;4.78;2.87;;;;;;;18.20;43.19;101316.08;;;;-55
2022/03/27 18:05:16;;;;;;;3.38;2.46;;;;;;;18.18;43.20;101315.14;;;;-53
2022/03/27 18:08:15;;;;;;;3.08;2.46;;;;;;;18.18;43.19;101318.47;;;;-56
2022/03/27 18:11:15;;;;;;;3.20;2.57;;;;;;;18.20;43.19;101320.02;;;;-60
2022/03/27 18:14:15;;;;;;;3.17;2.83;;;;;;;18.19;43.21;101322.13;;;;-54
2022/03/27 18:17:17;;;;;;;3.27;2.53;;;;;;;18.20;43.23;101318.56;;;;-50
2022/03/27 18:20:15;;;;;;;4.00;2.59;;;;;;;18.21;43.18;101322.91;;;;-53
2022/03/27 18:23:15;;;;;;;5.03;2.82;;;;;;;18.21;43.23;101325.09;;;;-56
2022/03/27 18:26:15;;;;;;;4.31;2.58;;;;;;;18.21;43.23;101325.18;;;;-51
2022/03/27 18:29:15;;;;;;;2.66;2.41;;;;;;;18.21;43.26;101327.69;;;;-56
2022/03/27 18:32:15;;;;;;;3.29;2.58;;;;;;;18.22;43.23;101330.09;;;;-58
2022/03/27 18:35:15;;;;;;;3.17;2.59;;;;;;;18.21;43.22;101335.33;;;;-58
2022/03/27 18:38:15;;;;;;;3.20;2.67;;;;;;;18.19;43.20;101337.70;;;;-57
2022/03/27 18:41:15;;;;;;;3.93;3.00;;;;;;;18.18;43.19;101341.66;;;;-53
2022/03/27 18:44:15;;;;;;;3.40;2.57;;;;;;;18.17;43.19;101343.73;;;;-60
2022/03/27 18:47:15;;;;;;;120.78;111.39;;;;;;;18.15;43.16;101345.14;;;;-55
2022/03/27 18:50:15;;;;;;;182.59;167.41;;;;;;;18.14;43.13;101345.78;;;;-55
2022/03/27 18:53:15;;;;;;;37.99;35.04;;;;;;;18.13;43.14;101348.17;;;;-55
2022/03/27 18:56:16;;;;;;;61.30;56.59;;;;;;;18.13;43.14;101350.84;;;;-56
2022/03/27 18:59:15;;;;;;;39.41;35.96;;;;;;;18.12;43.13;101350.19;;;;-56
2022/03/27 19:02:15;;;;;;;395.02;360.31;;;;;;;18.12;43.12;101354.81;;;;-58
2022/03/27 19:05:15;;;;;;;383.58;350.64;;;;;;;18.11;43.09;101356.80;;;;-52
2022/03/27 19:08:15;;;;;;;348.36;318.67;;;;;;;18.10;43.06;101361.25;;;;-59
2022/03/27 19:11:15;;;;;;;531.36;484.14;;;;;;;18.10;43.02;101361.65;;;;-60
2022/03/27 19:14:15;;;;;;;314.77;288.37;;;;;;;18.09;43.02;101360.55;;;;-57
2022/03/27 19:17:15;;;;;;;432.39;394.56;;;;;;;18.07;43.04;101364.34;;;;-55
2022/03/27 19:20:15;;;;;;;492.10;448.57;;;;;;;18.06;43.05;101367.39;;;;-55
2022/03/27 19:23:16;;;;;;;533.39;485.53;;;;;;;18.06;43.02;101366.17;;;;-52
2022/03/27 19:26:15;;;;;;;354.33;323.73;;;;;;;18.05;43.01;101365.23;;;;-52
2022/03/27 19:29:15;;;;;;;6.88;6.28;;;;;;;18.05;43.03;101366.05;;;;-53
2022/03/27 19:32:15;;;;;;;373.07;341.31;;;;;;;18.05;43.00;101367.02;;;;-52
2022/03/27 19:35:15;;;;;;;507.19;462.19;;;;;;;18.05;42.97;101368.16;;;;-53
2022/03/27 19:38:15;;;;;;;183.20;169.24;;;;;;;18.03;42.96;101372.64;;;;-59
2022/03/27 19:41:15;;;;;;;190.17;175.57;;;;;;;18.03;42.99;101371.25;;;;-60
2022/03/27 19:44:15;;;;;;;194.43;179.56;;;;;;;18.02;42.98;101375.63;;;;-58
2022/03/27 19:47:15;;;;;;;239.29;220.67;;;;;;;18.00;43.01;101372.25;;;;-59
2022/03/27 19:50:15;;;;;;;358.76;328.55;;;;;;;18.00;42.99;101373.70;;;;-59
2022/03/27 19:53:15;;;;;;;472.04;429.69;;;;;;;17.99;42.99;101370.62;;;;-57
2022/03/27 19:56:16;;;;;;;293.11;269.48;;;;;;;17.98;42.99;101367.00;;;;-59
2022/03/27 19:59:15;;;;;;;187.55;173.02;;;;;;;17.99;43.14;101373.86;;;;-59
2022/03/27 20:02:15;;;;;;;162.27;150.27;;;;;;;18.00;43.13;101371.19;;;;-54
2022/03/27 20:05:15;;;;;;;146.17;135.28;;;;;;;18.00;43.05;101372.33;;;;-54
2022/03/27 20:08:15;;;;;;;149.54;137.83;;;;;;;18.00;43.20;101373.14;;;;-62
2022/03/27 20:11:15;;;;;;;163.77;151.38;;;;;;;18.01;43.25;101371.86;;;;-56
2022/03/27 20:14:16;;;;;;;231.05;212.87;;;;;;;18.03;43.29;101370.53;;;;-57
2022/03/27 20:17:15;;;;;;;102.11;94.75;;;;;;;18.04;43.30;101376.50;;;;-51
2022/03/27 20:20:16;;;;;;;146.28;135.70;;;;;;;18.04;43.33;101374.47;;;;-58